createdAt,value
2019-02-10T00:01:51.909Z,7.40
2019-02-10T00:04:21.087Z,7.30
2019-02-10T00:06:50.535Z,7.20
2019-02-10T00:09:19.781Z,7.20
2019-02-10T00:11:49.307Z,7.20
2019-02-10T00:14:18.874Z,7.30
2019-02-10T00:16:48.197Z,7.30
2019-02-10T00:19:17.345Z,7.40
2019-02-10T00:21:46.922Z,7.50
2019-02-10T00:24:16.483Z,7.50
2019-02-10T00:26:45.695Z,7.60
2019-02-10T00:29:14.953Z,7.60
2019-02-10T00:31:44.152Z,7.60
2019-02-10T00:34:13.317Z,7.70
2019-02-10T00:36:43.111Z,7.70
2019-02-10T00:39:12.337Z,7.70
2019-02-10T00:41:41.528Z,7.70
2019-02-10T00:44:11.074Z,7.70
2019-02-10T00:46:40.307Z,7.70
2019-02-10T00:49:09.886Z,7.70
2019-02-10T00:51:39.064Z,7.70
2019-02-10T00:54:08.354Z,7.70
2019-02-10T00:56:37.531Z,7.70
2019-02-10T00:59:07.105Z,7.70
2019-02-10T01:01:36.370Z,7.70
2019-02-10T01:04:05.634Z,7.70
2019-02-10T01:06:41.220Z,7.70
2019-02-10T01:09:08.178Z,7.60
2019-02-10T01:11:37.393Z,7.60
2019-02-10T01:14:06.905Z,7.70
2019-02-10T01:16:36.205Z,7.70
2019-02-10T01:19:11.966Z,7.70
2019-02-10T01:21:45.629Z,7.80
2019-02-10T01:24:14.922Z,7.80
2019-02-10T01:26:44.242Z,7.80
2019-02-10T01:29:13.762Z,7.80
2019-02-10T01:31:43.104Z,7.80
2019-02-10T01:34:12.601Z,7.90
2019-02-10T01:36:49.181Z,7.90
2019-02-10T01:39:19.717Z,7.90
2019-02-10T01:41:49.043Z,7.90
2019-02-10T01:44:18.644Z,7.80
2019-02-10T01:46:47.836Z,7.80
2019-02-10T01:49:17.067Z,7.80
2019-02-10T01:51:46.289Z,7.80
2019-02-10T01:54:15.489Z,7.80
2019-02-10T01:56:44.777Z,7.70
2019-02-10T01:59:14.292Z,7.70
2019-02-10T02:01:43.555Z,7.60
2019-02-10T02:04:13.005Z,7.70
2019-02-10T02:06:42.248Z,7.60
2019-02-10T02:09:13.927Z,7.70
2019-02-10T02:11:43.193Z,7.70
2019-02-10T02:14:12.349Z,7.80
2019-02-10T02:16:42.117Z,7.80
2019-02-10T02:19:11.274Z,7.80
2019-02-10T02:21:40.535Z,7.80
2019-02-10T02:24:09.905Z,7.90
2019-02-10T02:26:39.222Z,7.90
2019-02-10T02:29:08.463Z,7.90
2019-02-10T02:31:38.058Z,7.90
2019-02-10T02:34:07.326Z,7.90
2019-02-10T02:36:42.271Z,7.90
2019-02-10T02:39:11.811Z,7.90
2019-02-10T02:41:41.133Z,7.90
2019-02-10T02:44:10.326Z,7.90
2019-02-10T02:46:39.784Z,8.00
2019-02-10T02:49:08.952Z,8.00
2019-02-10T02:51:38.465Z,8.00
2019-02-10T02:54:07.876Z,8.00
2019-02-10T02:56:37.217Z,7.90
2019-02-10T02:59:06.470Z,8.00
2019-02-10T03:01:36.066Z,8.00
2019-02-10T03:04:05.236Z,8.00
2019-02-10T03:06:46.786Z,7.90
2019-02-10T03:09:16.500Z,8.00
2019-02-10T03:11:45.807Z,8.00
2019-02-10T03:14:15.033Z,8.00
2019-02-10T03:16:44.323Z,8.00
2019-02-10T03:19:13.637Z,8.00
2019-02-10T03:21:43.113Z,8.00
2019-02-10T03:24:12.781Z,7.90
2019-02-10T03:26:42.110Z,7.90
2019-02-10T03:29:11.345Z,7.90
2019-02-10T03:31:40.580Z,7.90
2019-02-10T03:34:10.069Z,7.90
2019-02-10T03:36:39.865Z,7.90
2019-02-10T03:39:09.029Z,7.90
2019-02-10T03:41:38.291Z,7.90
2019-02-10T03:44:07.512Z,8.00
2019-02-10T03:46:36.790Z,8.00
2019-02-10T03:49:06.073Z,7.90
2019-02-10T03:51:35.279Z,7.90
2019-02-10T03:54:04.518Z,7.90
2019-02-10T03:56:33.741Z,7.90
2019-02-10T03:59:03.114Z,7.90
2019-02-10T04:01:32.561Z,7.90
2019-02-10T04:04:02.094Z,7.90
2019-02-10T04:06:31.333Z,7.90
2019-02-10T04:09:00.595Z,8.00
2019-02-10T04:11:29.799Z,8.00
2019-02-10T04:13:59.178Z,8.10
2019-02-10T04:16:28.461Z,8.10
2019-02-10T04:18:57.969Z,8.00
2019-02-10T04:21:27.132Z,8.10
2019-02-10T04:23:56.409Z,8.10
2019-02-10T04:26:25.894Z,8.10
2019-02-10T04:28:55.161Z,8.10
2019-02-10T04:31:24.386Z,8.10
2019-02-10T04:33:53.620Z,8.10
2019-02-10T04:36:23.154Z,8.10
2019-02-10T04:38:52.320Z,8.10
2019-02-10T04:41:21.580Z,8.10
2019-02-10T04:43:50.732Z,8.10
2019-02-10T04:46:19.963Z,8.10
2019-02-10T04:48:49.226Z,8.10
2019-02-10T04:51:18.839Z,8.20
2019-02-10T04:53:48.106Z,8.20
2019-02-10T04:56:18.511Z,8.20
2019-02-10T04:58:48.189Z,8.20
2019-02-10T05:01:17.514Z,8.20
2019-02-10T05:03:46.752Z,8.20
2019-02-10T05:06:16.204Z,8.30
2019-02-10T05:08:45.481Z,8.30
2019-02-10T05:11:14.751Z,8.30
2019-02-10T05:13:44.147Z,8.30
2019-02-10T05:16:13.381Z,8.30
2019-02-10T05:18:42.706Z,8.30
2019-02-10T05:21:12.036Z,8.20
2019-02-10T05:23:41.252Z,8.20
2019-02-10T05:26:10.433Z,8.20
2019-02-10T05:28:39.675Z,8.30
2019-02-10T05:31:09.136Z,8.30
2019-02-10T05:33:38.391Z,8.30
2019-02-10T05:36:07.551Z,8.30
2019-02-10T05:38:36.746Z,8.30
2019-02-10T05:41:05.996Z,8.30
2019-02-10T05:43:35.250Z,8.40
2019-02-10T05:46:04.495Z,8.40
2019-02-10T05:48:33.657Z,8.40
2019-02-10T05:51:02.911Z,8.40
2019-02-10T05:53:32.129Z,8.40
2019-02-10T05:56:01.629Z,8.50
2019-02-10T05:58:30.770Z,8.50
2019-02-10T06:01:35.577Z,8.50
2019-02-10T06:04:04.825Z,8.40
2019-02-10T06:06:34.102Z,8.50
2019-02-10T06:09:04.694Z,8.50
2019-02-10T06:11:34.016Z,8.60
2019-02-10T06:14:03.316Z,8.60
2019-02-10T06:16:32.501Z,8.60
2019-02-10T06:19:01.762Z,8.60
2019-02-10T06:21:31.116Z,8.60
2019-02-10T06:24:00.341Z,8.60
2019-02-10T06:26:29.520Z,8.60
2019-02-10T06:28:58.662Z,8.60
2019-02-10T06:31:28.172Z,8.60
2019-02-10T06:33:57.657Z,8.60
2019-02-10T06:36:26.855Z,8.70
2019-02-10T06:38:56.065Z,8.70
2019-02-10T06:41:25.561Z,8.80
2019-02-10T06:43:54.744Z,8.80
2019-02-10T06:46:23.920Z,8.80
2019-02-10T06:48:53.154Z,8.80
2019-02-10T06:51:22.429Z,8.80
2019-02-10T06:53:51.745Z,8.70
2019-02-10T06:56:21.014Z,8.70
2019-02-10T06:58:50.265Z,8.70
2019-02-10T07:01:36.516Z,8.70
2019-02-10T07:04:12.281Z,8.70
2019-02-10T07:06:42.073Z,8.80
2019-02-10T07:09:11.581Z,8.80
2019-02-10T07:11:40.825Z,8.80
2019-02-10T07:14:36.366Z,8.90
2019-02-10T07:17:26.399Z,8.90
2019-02-10T07:20:30.887Z,9.00
2019-02-10T07:24:05.098Z,9.00
2019-02-10T07:26:54.473Z,9.10
2019-02-10T07:30:00.387Z,9.20
2019-02-10T07:32:37.185Z,9.20
2019-02-10T07:35:39.097Z,9.20
2019-02-10T07:38:38.656Z,9.30
2019-02-10T07:41:39.238Z,9.30
2019-02-10T07:44:27.789Z,9.40
2019-02-10T07:47:20.877Z,9.40
2019-02-10T07:50:13.273Z,9.50
2019-02-10T07:52:58.513Z,9.50
2019-02-10T07:56:24.206Z,9.60
2019-02-10T07:59:17.853Z,9.60
2019-02-10T08:02:26.860Z,9.70
2019-02-10T08:05:34.968Z,9.70
2019-02-10T08:08:35.797Z,9.70
2019-02-10T08:11:58.472Z,9.70
2019-02-10T08:15:24.393Z,9.70
2019-02-10T08:18:03.982Z,9.70
2019-02-10T08:20:57.619Z,9.70
2019-02-10T08:24:14.138Z,9.70
2019-02-10T08:27:01.193Z,9.70
2019-02-10T08:29:46.414Z,9.60
2019-02-10T08:32:27.645Z,9.60
2019-02-10T08:35:27.844Z,9.60
2019-02-10T08:38:29.677Z,9.50
2019-02-10T08:41:32.241Z,9.50
2019-02-10T08:44:42.483Z,9.40
2019-02-10T08:47:36.496Z,9.50
2019-02-10T08:50:49.841Z,9.50
2019-02-10T08:53:26.980Z,9.60
2019-02-10T08:55:56.269Z,9.60
2019-02-10T08:58:25.754Z,9.60
2019-02-10T09:00:54.961Z,9.60
2019-02-10T09:03:24.926Z,9.60
2019-02-10T09:05:54.990Z,9.60
2019-02-10T09:08:24.291Z,9.60
2019-02-10T09:10:53.764Z,9.70
2019-02-10T09:13:23.204Z,9.70
2019-02-10T09:15:52.455Z,9.80
2019-02-10T09:18:21.741Z,9.80
2019-02-10T09:20:51.549Z,9.90
2019-02-10T09:23:20.804Z,10.00
2019-02-10T09:25:50.031Z,10.00
2019-02-10T09:28:19.230Z,10.00
2019-02-10T09:30:48.742Z,10.10
2019-02-10T09:33:17.930Z,10.20
2019-02-10T09:35:47.596Z,10.30
2019-02-10T09:38:16.903Z,10.50
2019-02-10T09:40:46.260Z,10.60
2019-02-10T09:43:15.745Z,10.80
2019-02-10T09:45:46.215Z,10.90
2019-02-10T09:48:15.491Z,10.90
2019-02-10T09:50:44.765Z,10.90
2019-02-10T09:53:14.316Z,11.00
2019-02-10T09:55:43.852Z,11.10
2019-02-10T09:58:13.136Z,11.00
2019-02-10T10:00:42.445Z,11.30
2019-02-10T10:03:11.893Z,11.30
2019-02-10T10:05:41.230Z,11.30
2019-02-10T10:08:10.615Z,11.40
2019-02-10T10:10:40.236Z,11.50
2019-02-10T10:13:09.713Z,11.70
2019-02-10T10:15:39.013Z,11.70
2019-02-10T10:18:08.290Z,12.20
2019-02-10T10:20:37.655Z,11.90
2019-02-10T10:23:06.985Z,12.00
2019-02-10T10:25:36.601Z,12.20
2019-02-10T10:28:06.141Z,12.40
2019-02-10T10:30:35.417Z,12.30
2019-02-10T10:33:04.621Z,12.30
2019-02-10T10:35:34.028Z,12.50
2019-02-10T10:38:03.694Z,12.40
2019-02-10T10:40:33.041Z,12.30
2019-02-10T10:43:02.197Z,12.30
2019-02-10T10:45:31.483Z,12.40
2019-02-10T10:48:00.753Z,12.30
2019-02-10T10:50:30.001Z,12.30
2019-02-10T10:52:59.582Z,12.40
2019-02-10T10:55:29.687Z,12.20
2019-02-10T10:57:59.029Z,12.20
2019-02-10T11:00:28.530Z,12.10
2019-02-10T11:02:58.199Z,12.10
2019-02-10T11:05:27.481Z,11.80
2019-02-10T11:07:56.800Z,11.80
2019-02-10T11:10:28.036Z,11.90
2019-02-10T11:12:57.764Z,12.00
2019-02-10T11:15:27.161Z,11.90
2019-02-10T11:17:56.709Z,11.80
2019-02-10T11:20:25.961Z,11.80
2019-02-10T11:22:55.217Z,11.60
2019-02-10T11:25:24.460Z,11.50
2019-02-10T11:27:53.974Z,11.60
2019-02-10T11:30:23.202Z,11.40
2019-02-10T11:32:52.522Z,11.30
2019-02-10T11:35:21.769Z,11.40
2019-02-10T11:37:51.325Z,11.60
2019-02-10T11:40:20.604Z,11.50
2019-02-10T11:42:50.333Z,11.50
2019-02-10T11:45:19.901Z,11.40
2019-02-10T11:47:49.176Z,11.20
2019-02-10T11:50:18.390Z,11.10
2019-02-10T11:52:47.829Z,11.10
2019-02-10T11:55:17.034Z,11.10
2019-02-10T11:57:46.625Z,11.00
2019-02-10T12:00:15.921Z,10.90
2019-02-10T12:02:45.234Z,10.80
2019-02-10T12:05:14.516Z,10.70
2019-02-10T12:07:43.839Z,10.60
2019-02-10T12:10:13.657Z,10.50
2019-02-10T12:12:43.039Z,10.30
2019-02-10T12:15:12.276Z,10.20
2019-02-10T12:17:42.642Z,10.30
2019-02-10T12:20:11.999Z,10.30
2019-02-10T12:22:49.664Z,10.30
2019-02-10T12:25:14.977Z,10.20
2019-02-10T12:27:45.890Z,10.20
2019-02-10T12:30:15.209Z,10.30
2019-02-10T12:32:44.665Z,10.20
2019-02-10T12:35:14.204Z,10.10
2019-02-10T12:37:43.546Z,10.00
2019-02-10T12:40:13.258Z,10.10
2019-02-10T12:42:42.649Z,10.10
2019-02-10T12:45:12.272Z,10.10
2019-02-10T12:47:41.835Z,10.10
2019-02-10T12:50:11.912Z,10.20
2019-02-10T12:52:41.151Z,10.30
2019-02-10T12:55:10.614Z,10.30
2019-02-10T12:57:40.338Z,10.30
2019-02-10T13:00:12.671Z,10.40
2019-02-10T13:02:42.053Z,10.40
2019-02-10T13:05:11.476Z,10.40
2019-02-10T13:07:40.750Z,10.50
2019-02-10T13:10:11.548Z,10.60
2019-02-10T13:12:40.799Z,10.70
2019-02-10T13:15:10.604Z,10.70
2019-02-10T13:17:40.426Z,10.80
2019-02-10T13:20:10.159Z,10.80
2019-02-10T13:22:39.604Z,10.80
2019-02-10T13:25:09.622Z,10.80
2019-02-10T13:27:39.308Z,10.80
2019-02-10T13:30:10.635Z,10.90
2019-02-10T13:32:40.451Z,10.90
2019-02-10T13:35:09.904Z,11.00
2019-02-10T13:37:39.271Z,11.00
2019-02-10T13:40:16.728Z,10.90
2019-02-10T13:42:51.935Z,10.90
2019-02-10T13:45:21.742Z,10.80
2019-02-10T13:47:51.701Z,10.80
2019-02-10T13:50:20.951Z,10.70
2019-02-10T13:52:50.604Z,10.60
2019-02-10T13:55:20.398Z,10.70
2019-02-10T13:57:49.974Z,10.60
2019-02-10T14:00:20.101Z,10.50
2019-02-10T14:02:49.711Z,10.40
2019-02-10T14:05:19.066Z,10.20
2019-02-10T14:07:48.376Z,10.00
2019-02-10T14:10:25.231Z,9.90
2019-02-10T14:12:50.174Z,9.80
2019-02-10T14:15:20.091Z,9.80
2019-02-10T14:17:50.362Z,9.80
2019-02-10T14:20:19.909Z,9.70
2019-02-10T14:22:49.167Z,9.60
2019-02-10T14:25:18.778Z,9.70
2019-02-10T14:27:49.419Z,9.70
2019-02-10T14:30:18.769Z,9.60
2019-02-10T14:32:48.044Z,9.40
2019-02-10T14:35:18.541Z,9.30
2019-02-10T14:37:47.915Z,9.20
2019-02-10T14:40:18.103Z,9.20
2019-02-10T14:42:47.496Z,9.30
2019-02-10T14:45:16.912Z,9.20
2019-02-10T14:47:46.186Z,9.20
2019-02-10T14:50:15.903Z,9.10
2019-02-10T14:52:45.432Z,9.00
2019-02-10T14:55:15.028Z,8.90
2019-02-10T14:57:45.878Z,8.90
2019-02-10T15:00:16.055Z,8.90
2019-02-10T15:02:45.828Z,8.90
2019-02-10T15:05:15.428Z,8.80
2019-02-10T15:07:45.578Z,8.90
2019-02-10T15:10:15.013Z,8.80
2019-02-10T15:12:44.269Z,8.80
2019-02-10T15:15:13.575Z,8.80
2019-02-10T15:17:42.927Z,8.80
2019-02-10T15:20:12.453Z,8.80
2019-02-10T15:22:41.968Z,8.80
2019-02-10T15:25:11.480Z,8.80
2019-02-10T15:27:41.161Z,8.70
2019-02-10T15:30:11.573Z,8.70
2019-02-10T15:32:41.094Z,8.80
2019-02-10T15:35:10.836Z,8.80
2019-02-10T15:37:40.427Z,8.80
2019-02-10T15:40:09.740Z,8.80
2019-02-10T15:42:39.032Z,8.80
2019-02-10T15:45:09.252Z,8.80
2019-02-10T15:47:38.554Z,8.90
2019-02-10T15:50:08.552Z,8.90
2019-02-10T15:52:37.831Z,8.80
2019-02-10T15:55:08.319Z,8.80
2019-02-10T15:57:37.932Z,8.80
2019-02-10T16:00:10.508Z,8.80
2019-02-10T16:02:39.724Z,8.90
2019-02-10T16:05:09.732Z,8.90
2019-02-10T16:07:39.227Z,8.90
2019-02-10T16:10:09.650Z,8.80
2019-02-10T16:12:39.218Z,8.80
2019-02-10T16:15:08.680Z,8.80
2019-02-10T16:17:37.950Z,8.70
2019-02-10T16:20:08.897Z,8.60
2019-02-10T16:22:38.306Z,8.60
2019-02-10T16:25:07.560Z,8.60
2019-02-10T16:27:36.912Z,8.50
2019-02-10T16:30:07.794Z,8.50
2019-02-10T16:32:37.036Z,8.50
2019-02-10T16:35:06.478Z,8.50
2019-02-10T16:37:35.806Z,8.50
2019-02-10T16:40:05.794Z,8.50
2019-02-10T16:42:35.050Z,8.50
2019-02-10T16:45:04.326Z,8.50
2019-02-10T16:47:33.589Z,8.50
2019-02-10T16:50:02.850Z,8.40
2019-02-10T16:52:32.413Z,8.30
2019-02-10T16:55:01.825Z,8.10
2019-02-10T16:57:31.182Z,8.20
2019-02-10T17:00:00.671Z,8.20
2019-02-10T17:02:30.141Z,8.30
2019-02-10T17:04:59.332Z,8.30
2019-02-10T17:07:28.967Z,8.40
2019-02-10T17:09:58.384Z,8.40
2019-02-10T17:12:27.993Z,8.40
2019-02-10T17:14:57.315Z,8.50
2019-02-10T17:17:26.578Z,8.50
2019-02-10T17:19:55.827Z,8.50
2019-02-10T17:22:25.069Z,8.40
2019-02-10T17:24:54.386Z,8.40
2019-02-10T17:27:23.608Z,8.40
2019-02-10T17:29:52.950Z,8.40
2019-02-10T17:32:22.285Z,8.40
2019-02-10T17:34:51.568Z,8.30
2019-02-10T17:37:21.219Z,8.30
2019-02-10T17:39:50.776Z,8.30
2019-02-10T17:42:20.100Z,8.30
2019-02-10T17:44:49.466Z,8.20
2019-02-10T17:47:18.809Z,8.20
2019-02-10T17:49:48.119Z,8.20
2019-02-10T17:52:17.488Z,8.10
2019-02-10T17:54:46.741Z,8.10
2019-02-10T17:57:16.065Z,8.10
2019-02-10T17:59:45.651Z,8.10
2019-02-10T18:02:14.942Z,8.00
2019-02-10T18:04:44.254Z,7.90
2019-02-10T18:07:13.510Z,7.70
2019-02-10T18:09:42.819Z,7.60
2019-02-10T18:12:12.182Z,7.70
2019-02-10T18:15:16.463Z,7.80
2019-02-10T18:17:57.451Z,7.80
2019-02-10T18:20:44.131Z,7.80
2019-02-10T18:23:26.136Z,7.80
2019-02-10T18:26:14.341Z,7.90
2019-02-10T18:29:02.895Z,7.90
2019-02-10T18:31:53.422Z,7.90
2019-02-10T18:34:29.374Z,7.90
2019-02-10T18:37:12.384Z,7.90
2019-02-10T18:39:58.581Z,7.90
2019-02-10T18:43:04.938Z,7.90
2019-02-10T18:45:40.909Z,7.90
2019-02-10T18:48:18.887Z,7.90
2019-02-10T18:51:12.942Z,7.90
2019-02-10T18:54:10.650Z,7.90
2019-02-10T18:56:59.381Z,8.00
2019-02-10T18:59:46.606Z,7.90
2019-02-10T19:02:37.655Z,7.90
2019-02-10T19:05:20.930Z,7.90
2019-02-10T19:08:08.717Z,7.90
2019-02-10T19:10:55.760Z,7.80
2019-02-10T19:13:38.229Z,7.80
2019-02-10T19:16:25.377Z,7.80
2019-02-10T19:19:01.700Z,7.70
2019-02-10T19:21:50.609Z,7.70
2019-02-10T19:24:33.983Z,7.80
2019-02-10T19:27:28.187Z,7.80
2019-02-10T19:30:15.986Z,7.80
2019-02-10T19:32:50.325Z,7.80
2019-02-10T19:35:37.047Z,7.80
2019-02-10T19:38:17.908Z,7.70
2019-02-10T19:41:01.361Z,7.70
2019-02-10T19:43:49.945Z,7.70
2019-02-10T19:46:41.585Z,7.50
2019-02-10T19:49:29.687Z,7.40
2019-02-10T19:52:16.704Z,7.20
2019-02-10T19:55:03.483Z,7.10
2019-02-10T19:57:48.893Z,7.00
2019-02-10T20:00:36.132Z,6.80
2019-02-10T20:03:19.252Z,6.70
2019-02-10T20:06:05.837Z,6.60
2019-02-10T20:08:57.292Z,6.50
2019-02-10T20:11:43.928Z,6.60
2019-02-10T20:14:25.955Z,6.60
2019-02-10T20:17:26.058Z,6.70
2019-02-10T20:20:08.230Z,6.70
2019-02-10T20:22:56.478Z,6.70
2019-02-10T20:25:51.000Z,6.70
2019-02-10T20:28:37.994Z,6.70
2019-02-10T20:31:38.714Z,6.70
2019-02-10T20:34:33.177Z,6.70
2019-02-10T20:37:09.821Z,6.70
2019-02-10T20:39:52.677Z,6.60
2019-02-10T20:42:37.482Z,6.60
2019-02-10T20:45:25.056Z,6.50
2019-02-10T20:48:12.336Z,6.50
2019-02-10T20:50:59.581Z,6.50
2019-02-10T20:53:47.833Z,6.50
2019-02-10T20:56:29.866Z,6.40
2019-02-10T20:59:11.316Z,6.40
2019-02-10T21:01:56.849Z,6.50
2019-02-10T21:04:34.206Z,6.50
2019-02-10T21:07:25.350Z,6.50
2019-02-10T21:10:09.142Z,6.50
2019-02-10T21:12:48.892Z,6.50
2019-02-10T21:15:43.540Z,6.60
2019-02-10T21:18:33.205Z,6.60
2019-02-10T21:21:31.284Z,6.70
2019-02-10T21:24:36.260Z,6.70
2019-02-10T21:27:43.850Z,6.60
2019-02-10T21:30:30.702Z,6.60
2019-02-10T21:33:21.752Z,6.70
2019-02-10T21:35:58.554Z,6.70
2019-02-10T21:39:06.080Z,6.70
2019-02-10T21:41:43.525Z,6.70
2019-02-10T21:44:30.660Z,6.70
2019-02-10T21:47:16.580Z,6.70
2019-02-10T21:50:05.083Z,6.60
2019-02-10T21:52:34.937Z,6.60
2019-02-10T21:58:06.351Z,6.60
2019-02-10T22:00:35.642Z,6.60
2019-02-10T22:03:04.996Z,6.60
2019-02-10T22:05:34.477Z,6.50
2019-02-10T22:08:03.777Z,6.50
2019-02-10T22:10:33.624Z,6.50
2019-02-10T22:13:02.898Z,6.50
2019-02-10T22:15:32.242Z,6.50
2019-02-10T22:18:01.850Z,6.50
2019-02-10T22:20:31.129Z,6.50
2019-02-10T22:23:00.409Z,6.50
2019-02-10T22:25:29.989Z,6.60
2019-02-10T22:27:59.309Z,6.60
2019-02-10T22:30:28.581Z,6.60
2019-02-10T22:32:58.164Z,6.60
2019-02-10T22:35:27.756Z,6.60
2019-02-10T22:37:57.117Z,6.60
2019-02-10T22:40:26.673Z,6.60
2019-02-10T22:42:56.037Z,6.70
2019-02-10T22:45:25.538Z,6.70
2019-02-10T22:47:54.813Z,6.70
2019-02-10T22:50:24.028Z,6.80
2019-02-10T22:52:53.280Z,6.80
2019-02-10T22:55:22.510Z,6.80
2019-02-10T22:57:52.485Z,6.80
2019-02-10T23:00:43.836Z,6.80
2019-02-10T23:03:13.447Z,6.70
2019-02-10T23:05:43.543Z,6.50
2019-02-10T23:08:12.910Z,6.40
2019-02-10T23:10:42.489Z,6.40
2019-02-10T23:13:12.002Z,6.30
2019-02-10T23:15:41.261Z,6.20
2019-02-10T23:18:10.760Z,6.20
2019-02-10T23:20:40.021Z,6.20
2019-02-10T23:23:09.530Z,6.20
2019-02-10T23:25:39.217Z,6.20
2019-02-10T23:28:08.495Z,6.20
2019-02-10T23:30:37.801Z,6.20
2019-02-10T23:33:07.116Z,6.30
2019-02-10T23:35:36.636Z,6.30
2019-02-10T23:38:05.897Z,6.30
2019-02-10T23:40:35.737Z,6.30
2019-02-10T23:43:04.986Z,6.40
2019-02-10T23:45:34.485Z,6.30
2019-02-10T23:48:03.740Z,6.30
2019-02-10T23:50:33.004Z,6.30
2019-02-10T23:53:02.591Z,6.30
2019-02-10T23:55:31.873Z,6.30
2019-02-10T23:58:01.122Z,6.30
